createdAt,value
2022-09-07T00:00:39.754Z,58.39
2022-09-07T00:01:39.707Z,57.98
2022-09-07T00:02:39.736Z,58.06
2022-09-07T00:08:19.862Z,57.86
2022-09-07T00:09:15.562Z,57.78
2022-09-07T00:10:15.518Z,58.29
2022-09-07T00:11:15.366Z,57.68
2022-09-07T00:12:15.360Z,58.19
2022-09-07T00:13:15.386Z,57.58
2022-09-07T00:14:15.344Z,57.78
2022-09-07T00:15:15.547Z,57.98
2022-09-07T00:16:15.412Z,57.28
2022-09-07T00:17:15.300Z,57.68
2022-09-07T00:18:15.293Z,57.98
2022-09-07T00:19:15.292Z,57.58
2022-09-07T00:20:15.294Z,58.39
2022-09-07T00:21:15.254Z,57.68
2022-09-07T00:22:15.248Z,58.39
2022-09-07T00:23:15.236Z,58.09
2022-09-07T00:24:15.232Z,57.98
2022-09-07T00:25:15.901Z,57.98
2022-09-07T00:26:16.072Z,57.89
2022-09-07T00:27:15.194Z,57.81
2022-09-07T00:28:15.197Z,57.48
2022-09-07T00:29:15.180Z,57.91
2022-09-07T00:30:15.163Z,58.42
2022-09-07T00:31:15.187Z,58.72
2022-09-07T00:32:16.466Z,59.02
2022-09-07T00:33:15.129Z,58.62
2022-09-07T00:34:15.116Z,58.72
2022-09-07T00:35:15.105Z,58.12
2022-09-07T00:36:15.092Z,58.22
2022-09-07T00:37:15.112Z,58.12
2022-09-07T00:38:15.072Z,58.72
2022-09-07T00:39:15.059Z,58.42
2022-09-07T00:40:15.053Z,58.82
2022-09-07T00:41:15.057Z,58.52
2022-09-07T00:42:15.033Z,59.25
2022-09-07T00:43:15.202Z,58.95
2022-09-07T00:44:15.007Z,59.35
2022-09-07T00:45:14.995Z,59.35
2022-09-07T00:46:15.094Z,59.15
2022-09-07T00:47:15.022Z,59.05
2022-09-07T00:48:14.963Z,59.25
2022-09-07T00:49:14.961Z,58.65
2022-09-07T00:50:14.940Z,59.28
2022-09-07T00:51:14.929Z,59.45
2022-09-07T00:52:14.968Z,59.25
2022-09-07T00:53:14.910Z,59.89
2022-09-07T00:54:14.892Z,59.58
2022-09-07T00:55:14.885Z,59.99
2022-09-07T00:56:14.871Z,60.60
2022-09-07T00:57:14.877Z,60.29
2022-09-07T00:58:14.877Z,60.49
2022-09-07T00:59:14.843Z,60.19
2022-09-07T01:00:14.835Z,60.39
2022-09-07T01:01:14.816Z,60.29
2022-09-07T01:02:14.943Z,60.29
2022-09-07T01:03:14.820Z,60.39
2022-09-07T01:04:14.839Z,60.29
2022-09-07T01:05:14.773Z,60.80
2022-09-07T01:06:14.948Z,60.09
2022-09-07T01:07:14.745Z,61.13
2022-09-07T01:08:15.336Z,61.33
2022-09-07T01:09:14.762Z,60.93
2022-09-07T01:10:14.716Z,60.93
2022-09-07T01:11:14.707Z,60.93
2022-09-07T01:12:14.713Z,60.62
2022-09-07T01:13:14.678Z,60.72
2022-09-07T01:14:14.667Z,61.53
2022-09-07T01:15:14.657Z,60.62
2022-09-07T01:16:14.703Z,61.23
2022-09-07T01:17:14.661Z,61.23
2022-09-07T01:18:14.624Z,61.94
2022-09-07T01:19:15.161Z,61.63
2022-09-07T01:20:14.613Z,61.73
2022-09-07T01:21:14.591Z,61.94
2022-09-07T01:22:14.573Z,61.63
2022-09-07T01:23:14.708Z,61.63
2022-09-07T01:24:14.552Z,61.23
2022-09-07T01:25:14.568Z,61.94
2022-09-07T01:26:14.587Z,61.94
2022-09-07T01:27:14.521Z,61.73
2022-09-07T01:28:14.508Z,61.87
2022-09-07T01:29:14.549Z,62.27
2022-09-07T01:30:14.503Z,61.94
2022-09-07T01:31:14.507Z,62.27
2022-09-07T01:32:14.472Z,62.16
2022-09-07T01:33:14.458Z,61.96
2022-09-07T01:34:14.465Z,62.27
2022-09-07T01:35:14.458Z,62.16
2022-09-07T01:36:14.421Z,62.07
2022-09-07T01:37:14.406Z,62.37
2022-09-07T01:38:14.409Z,62.16
2022-09-07T01:39:14.386Z,62.37
2022-09-07T01:40:14.411Z,62.27
2022-09-07T01:41:14.369Z,62.16
2022-09-07T01:42:14.353Z,62.47
2022-09-07T01:43:14.342Z,62.37
2022-09-07T01:44:14.343Z,62.57
2022-09-07T01:45:14.317Z,62.60
2022-09-07T01:46:14.429Z,62.70
2022-09-07T01:47:14.299Z,62.77
2022-09-07T01:48:14.280Z,62.77
2022-09-07T01:49:14.527Z,62.67
2022-09-07T01:50:14.262Z,62.50
2022-09-07T01:51:14.269Z,62.98
2022-09-07T01:52:14.243Z,63.18
2022-09-07T01:53:14.225Z,63.10
2022-09-07T01:54:14.218Z,62.90
2022-09-07T01:55:14.651Z,62.98
2022-09-07T01:56:14.222Z,62.90
2022-09-07T01:57:14.188Z,62.81
2022-09-07T01:58:14.167Z,63.08
2022-09-07T01:59:14.162Z,62.77
2022-09-07T02:00:14.147Z,63.21
2022-09-07T02:01:14.187Z,63.01
2022-09-07T02:02:14.173Z,63.10
2022-09-07T02:03:14.119Z,63.21
2022-09-07T02:04:14.630Z,63.31
2022-09-07T02:05:14.099Z,63.31
2022-09-07T02:06:14.104Z,63.41
2022-09-07T02:07:14.070Z,63.71
2022-09-07T02:08:14.060Z,63.31
2022-09-07T02:09:14.052Z,63.21
2022-09-07T02:10:14.357Z,63.31
2022-09-07T02:11:14.051Z,63.10
2022-09-07T02:12:14.031Z,63.81
2022-09-07T02:13:14.004Z,63.75
2022-09-07T02:14:13.993Z,63.61
2022-09-07T02:15:13.984Z,63.54
2022-09-07T02:16:14.037Z,63.61
2022-09-07T02:17:13.990Z,63.84
2022-09-07T02:18:13.949Z,63.75
2022-09-07T02:19:13.955Z,64.32
2022-09-07T02:20:13.931Z,64.15
2022-09-07T02:21:14.605Z,64.15
2022-09-07T02:22:13.925Z,63.95
2022-09-07T02:23:13.888Z,63.64
2022-09-07T02:24:13.872Z,64.04
2022-09-07T02:25:14.643Z,63.64
2022-09-07T02:26:13.857Z,63.75
2022-09-07T02:27:21.491Z,64.25
2022-09-07T02:28:13.828Z,64.15
2022-09-07T02:29:13.872Z,63.84
2022-09-07T02:30:13.809Z,63.44
2022-09-07T02:31:13.865Z,63.64
2022-09-07T02:32:14.021Z,63.95
2022-09-07T02:33:13.779Z,63.98
2022-09-07T02:34:13.765Z,63.75
2022-09-07T02:35:13.758Z,64.76
2022-09-07T02:36:13.776Z,65.09
2022-09-07T02:37:13.733Z,64.76
2022-09-07T02:38:14.650Z,65.36
2022-09-07T02:39:13.731Z,64.96
2022-09-07T02:40:13.751Z,64.86
2022-09-07T02:41:13.690Z,64.89
2022-09-07T02:42:13.677Z,64.89
2022-09-07T02:43:13.679Z,64.58
2022-09-07T02:44:15.608Z,65.29
2022-09-07T02:45:13.653Z,65.29
2022-09-07T02:46:13.701Z,65.39
2022-09-07T02:47:13.625Z,65.39
2022-09-07T02:48:13.625Z,65.09
2022-09-07T02:49:13.597Z,65.39
2022-09-07T02:50:13.585Z,65.39
2022-09-07T02:51:13.604Z,65.80
2022-09-07T02:52:13.591Z,65.50
2022-09-07T02:53:13.553Z,65.70
2022-09-07T02:54:13.545Z,65.80
2022-09-07T02:55:13.797Z,65.29
2022-09-07T02:56:14.150Z,66.00
2022-09-07T02:57:13.695Z,65.90
2022-09-07T02:58:13.562Z,65.80
2022-09-07T02:59:13.597Z,65.80
2022-09-07T03:00:13.481Z,65.70
2022-09-07T03:01:13.661Z,66.10
2022-09-07T03:02:13.535Z,65.70
2022-09-07T03:03:13.457Z,65.90
2022-09-07T03:04:13.513Z,65.59
2022-09-07T03:05:13.419Z,66.03
2022-09-07T03:06:13.437Z,66.20
2022-09-07T03:07:13.434Z,66.41
2022-09-07T03:08:13.403Z,66.20
2022-09-07T03:09:13.372Z,66.10
2022-09-07T03:10:13.364Z,66.10
2022-09-07T03:11:13.352Z,66.24
2022-09-07T03:12:13.509Z,66.24
2022-09-07T03:13:13.329Z,66.44
2022-09-07T03:14:13.323Z,66.33
2022-09-07T03:15:13.306Z,66.24
2022-09-07T03:16:13.405Z,66.33
2022-09-07T03:17:13.306Z,66.64
2022-09-07T03:18:13.344Z,66.64
2022-09-07T03:19:13.263Z,66.54
2022-09-07T03:20:13.244Z,66.64
2022-09-07T03:21:13.241Z,66.64
2022-09-07T03:22:13.240Z,66.33
2022-09-07T03:23:13.214Z,66.13
2022-09-07T03:24:13.206Z,66.24
2022-09-07T03:25:13.196Z,66.44
2022-09-07T03:26:13.180Z,66.74
2022-09-07T03:27:13.190Z,66.24
2022-09-07T03:28:13.181Z,66.33
2022-09-07T03:29:13.153Z,66.33
2022-09-07T03:30:13.136Z,66.33
2022-09-07T03:31:13.208Z,66.44
2022-09-07T03:32:13.122Z,66.24
2022-09-07T03:33:13.129Z,66.24
2022-09-07T03:34:13.098Z,66.33
2022-09-07T03:35:14.417Z,66.16
2022-09-07T03:36:13.066Z,66.13
2022-09-07T03:37:13.079Z,67.05
2022-09-07T03:38:13.065Z,67.28
2022-09-07T03:39:13.039Z,67.14
2022-09-07T03:40:13.101Z,67.45
2022-09-07T03:41:13.019Z,67.08
2022-09-07T03:42:13.018Z,67.38
2022-09-07T03:43:12.998Z,67.55
2022-09-07T03:44:12.995Z,67.68
2022-09-07T03:45:12.966Z,67.18
2022-09-07T03:46:13.323Z,67.68
2022-09-07T03:47:12.976Z,67.28
2022-09-07T03:48:12.933Z,67.79
2022-09-07T03:49:12.925Z,67.08
2022-09-07T03:50:13.021Z,67.18
2022-09-07T03:51:12.906Z,67.79
2022-09-07T03:52:13.624Z,67.18
2022-09-07T03:53:12.883Z,67.58
2022-09-07T03:54:12.865Z,67.48
2022-09-07T03:55:12.855Z,67.58
2022-09-07T03:56:12.850Z,67.58
2022-09-07T03:57:15.470Z,67.48
2022-09-07T03:58:12.824Z,67.99
2022-09-07T03:59:12.812Z,67.48
2022-09-07T04:00:12.803Z,67.89
2022-09-07T04:01:12.839Z,67.89
2022-09-07T04:02:12.844Z,68.09
2022-09-07T04:03:12.948Z,68.40
2022-09-07T04:04:12.755Z,67.68
2022-09-07T04:05:16.297Z,68.19
2022-09-07T04:06:12.735Z,67.89
2022-09-07T04:07:12.724Z,68.40
2022-09-07T04:08:12.715Z,68.09
2022-09-07T04:09:15.675Z,67.79
2022-09-07T04:10:12.691Z,68.02
2022-09-07T04:11:12.723Z,67.41
2022-09-07T04:12:12.663Z,68.09
2022-09-07T04:13:12.663Z,68.49
2022-09-07T04:14:12.651Z,68.43
2022-09-07T04:15:12.644Z,68.49
2022-09-07T04:16:12.647Z,67.99
2022-09-07T04:17:12.685Z,68.23
2022-09-07T04:18:12.615Z,68.32
2022-09-07T04:19:12.588Z,68.32
2022-09-07T04:20:12.573Z,68.32
2022-09-07T04:21:12.568Z,68.43
2022-09-07T04:22:13.573Z,68.52
2022-09-07T04:23:12.540Z,68.26
2022-09-07T04:24:12.535Z,68.32
2022-09-07T04:25:12.520Z,68.52
2022-09-07T04:26:12.735Z,68.12
2022-09-07T04:27:12.504Z,69.13
2022-09-07T04:28:12.485Z,68.83
2022-09-07T04:29:12.474Z,68.52
2022-09-07T04:30:12.464Z,68.23
2022-09-07T04:31:12.540Z,68.93
2022-09-07T04:32:15.633Z,68.73
2022-09-07T04:33:12.440Z,68.83
2022-09-07T04:34:12.423Z,69.64
2022-09-07T04:35:12.416Z,68.63
2022-09-07T04:36:14.836Z,68.73
2022-09-07T04:37:12.489Z,69.34
2022-09-07T04:38:12.374Z,69.44
2022-09-07T04:39:12.359Z,68.23
2022-09-07T04:40:12.461Z,68.63
2022-09-07T04:41:12.334Z,69.54
2022-09-07T04:42:12.342Z,68.93
2022-09-07T04:43:12.601Z,69.64
2022-09-07T04:44:16.622Z,68.93
2022-09-07T04:45:12.291Z,69.24
2022-09-07T04:46:12.385Z,69.03
2022-09-07T04:47:12.273Z,68.83
2022-09-07T04:48:12.257Z,68.32
2022-09-07T04:49:12.246Z,69.47
2022-09-07T04:50:12.235Z,69.13
2022-09-07T04:51:12.240Z,69.47
2022-09-07T04:52:12.205Z,69.13
2022-09-07T04:53:12.202Z,68.93
2022-09-07T04:54:12.436Z,69.64
2022-09-07T04:55:12.181Z,69.64
2022-09-07T04:56:16.808Z,68.63
2022-09-07T04:57:12.204Z,69.64
2022-09-07T04:58:12.146Z,69.74
2022-09-07T04:59:12.151Z,69.03
2022-09-07T05:00:12.644Z,69.13
2022-09-07T05:01:18.816Z,68.52
2022-09-07T05:02:12.168Z,68.52
2022-09-07T05:03:12.086Z,68.93
2022-09-07T05:04:12.076Z,69.13
2022-09-07T05:05:12.062Z,69.03
2022-09-07T05:06:12.071Z,69.13
2022-09-07T05:07:12.040Z,68.93
2022-09-07T05:08:12.039Z,68.49
2022-09-07T05:09:12.014Z,69.34
2022-09-07T05:10:12.026Z,68.80
2022-09-07T05:11:12.021Z,68.29
2022-09-07T05:12:11.993Z,69.10
2022-09-07T05:13:11.974Z,69.20
2022-09-07T05:14:12.690Z,68.60
2022-09-07T05:15:12.254Z,69.61
2022-09-07T05:16:12.020Z,69.61
2022-09-07T05:17:11.932Z,69.71
2022-09-07T05:18:11.924Z,69.51
2022-09-07T05:19:11.905Z,69.51
2022-09-07T05:20:11.912Z,69.31
2022-09-07T05:21:11.890Z,68.90
2022-09-07T05:22:11.878Z,69.07
2022-09-07T05:23:12.650Z,68.77
2022-09-07T05:24:11.853Z,69.17
2022-09-07T05:25:11.861Z,67.96
2022-09-07T05:26:11.868Z,68.77
2022-09-07T05:27:11.815Z,67.55
2022-09-07T05:28:13.878Z,68.16
2022-09-07T05:32:12.668Z,67.82
2022-09-07T05:33:11.749Z,68.43
2022-09-07T05:35:12.750Z,68.33
2022-09-07T05:36:11.720Z,68.13
2022-09-07T05:37:11.705Z,67.59
2022-09-07T05:38:11.698Z,67.49
2022-09-07T05:39:11.707Z,67.49
2022-09-07T05:40:11.697Z,67.08
2022-09-07T05:41:11.666Z,67.18
2022-09-07T05:42:11.650Z,65.94
2022-09-07T05:43:11.746Z,66.35
2022-09-07T05:45:12.643Z,65.91
2022-09-07T05:46:11.636Z,65.61
2022-09-07T05:47:11.597Z,65.50
2022-09-07T05:48:11.609Z,65.07
2022-09-07T05:49:11.594Z,64.87
2022-09-07T05:50:11.561Z,65.07
2022-09-07T05:51:11.569Z,64.76
2022-09-07T05:52:11.536Z,64.67
2022-09-07T05:53:11.523Z,64.67
2022-09-07T05:54:11.513Z,64.64
2022-09-07T05:55:28.956Z,64.53
2022-09-07T05:56:12.495Z,63.73
2022-09-07T05:57:11.481Z,63.39
2022-09-07T05:58:11.477Z,63.39
2022-09-07T05:59:11.471Z,63.29
2022-09-07T06:00:11.512Z,62.96
2022-09-07T06:01:11.483Z,62.32
2022-09-07T06:02:11.624Z,62.22
2022-09-07T06:03:11.563Z,62.09
2022-09-07T06:04:11.519Z,61.69
2022-09-07T06:05:11.411Z,61.16
2022-09-07T06:06:11.383Z,59.92
2022-09-07T06:07:21.665Z,60.02
2022-09-07T06:08:12.357Z,59.62
2022-09-07T06:09:11.366Z,59.48
2022-09-07T06:11:12.318Z,58.12
2022-09-07T06:12:11.319Z,57.17
2022-09-07T06:13:11.299Z,57.34
2022-09-07T06:14:11.290Z,55.78
2022-09-07T06:15:11.292Z,54.55
2022-09-07T06:16:11.285Z,53.82
2022-09-07T06:17:11.352Z,53.92
2022-09-07T06:18:11.248Z,53.19
2022-09-07T06:19:11.256Z,52.97
2022-09-07T06:20:11.223Z,52.69
2022-09-07T06:21:11.208Z,53.19
2022-09-07T06:22:11.205Z,52.57
2022-09-07T06:23:11.422Z,52.24
2022-09-07T06:24:11.206Z,51.69
2022-09-07T06:25:11.193Z,50.59
2022-09-07T06:26:11.196Z,50.20
2022-09-07T06:27:11.145Z,50.20
2022-09-07T06:28:11.137Z,50.45
2022-09-07T06:29:11.140Z,49.40
2022-09-07T06:30:11.114Z,48.38
2022-09-07T06:31:11.150Z,47.66
2022-09-07T06:33:12.071Z,47.21
2022-09-07T06:34:11.277Z,46.81
2022-09-07T06:35:11.054Z,46.59
2022-09-07T06:36:11.039Z,46.37
2022-09-07T06:37:11.031Z,45.26
2022-09-07T06:38:11.028Z,45.53
2022-09-07T06:39:11.024Z,44.59
2022-09-07T06:40:11.598Z,44.27
2022-09-07T06:42:11.997Z,42.05
2022-09-07T06:43:10.987Z,42.25
2022-09-07T06:44:10.970Z,42.99
2022-09-07T06:45:10.947Z,42.99
2022-09-07T06:47:11.924Z,42.90
2022-09-07T06:48:10.916Z,41.49
2022-09-07T06:49:10.929Z,40.86
2022-09-07T06:50:10.908Z,40.05
2022-09-07T06:51:10.882Z,39.85
2022-09-07T06:52:10.869Z,39.99
2022-09-07T06:55:12.107Z,41.91
2022-09-07T06:56:10.823Z,42.33
2022-09-07T06:57:10.820Z,43.08
2022-09-07T06:58:10.818Z,45.65
2022-09-07T06:59:10.793Z,47.09
2022-09-07T07:00:10.782Z,46.79
2022-09-07T07:01:10.788Z,45.36
2022-09-07T07:02:21.713Z,45.53
2022-09-07T07:03:10.825Z,46.45
2022-09-07T07:04:10.910Z,45.43
2022-09-07T07:05:10.720Z,46.03
2022-09-07T07:06:10.711Z,45.51
2022-09-07T07:07:10.697Z,45.19
2022-09-07T07:08:10.707Z,45.29
2022-09-07T07:09:10.677Z,45.19
2022-09-07T07:10:10.956Z,44.67
2022-09-07T07:11:10.657Z,44.15
2022-09-07T07:12:11.989Z,44.13
2022-09-07T07:13:10.650Z,44.06
2022-09-07T07:14:10.624Z,43.42
2022-09-07T07:15:10.614Z,42.90
2022-09-07T07:16:10.654Z,42.60
2022-09-07T07:17:10.592Z,42.98
2022-09-07T07:18:20.937Z,42.38
2022-09-07T07:19:11.568Z,42.29
2022-09-07T07:20:10.578Z,42.60
2022-09-07T07:21:10.545Z,44.13
2022-09-07T07:23:11.537Z,44.48
2022-09-07T07:24:10.520Z,45.49
2022-09-07T07:25:11.256Z,45.19
2022-09-07T07:26:10.492Z,45.39
2022-09-07T07:27:10.487Z,45.67
2022-09-07T07:29:13.718Z,44.41
2022-09-07T07:30:10.447Z,42.78
2022-09-07T07:31:13.009Z,42.46
2022-09-07T07:32:10.426Z,42.32
2022-09-07T07:33:10.435Z,40.90
2022-09-07T07:34:10.506Z,40.07
2022-09-07T07:35:10.395Z,39.56
2022-09-07T07:36:10.389Z,39.81
2022-09-07T07:37:10.373Z,37.99
2022-09-07T07:42:11.315Z,37.57
2022-09-07T07:43:10.318Z,36.97
2022-09-07T07:44:10.481Z,36.24
2022-09-07T07:46:11.395Z,33.98
2022-09-07T07:47:10.262Z,33.09
2022-09-07T07:48:10.252Z,33.05
2022-09-07T07:49:10.238Z,32.13
2022-09-07T07:51:14.713Z,32.55
2022-09-07T07:54:11.186Z,32.42
2022-09-07T07:56:11.160Z,32.65
2022-09-07T07:57:10.171Z,33.89
2022-09-07T07:58:10.150Z,35.00
2022-09-07T07:59:13.803Z,35.29
2022-09-07T08:00:11.139Z,35.27
2022-09-07T08:01:10.163Z,35.27
2022-09-07T08:02:10.221Z,34.69
2022-09-07T08:03:10.090Z,35.00
2022-09-07T08:04:10.082Z,35.82
2022-09-07T08:05:10.109Z,37.16
2022-09-07T08:06:11.558Z,37.57
2022-09-07T08:07:11.214Z,38.18
2022-09-07T08:08:10.037Z,37.69
2022-09-07T08:09:10.026Z,37.97
2022-09-07T08:10:10.024Z,37.24
2022-09-07T08:11:10.037Z,36.42
2022-09-07T08:12:10.165Z,35.88
2022-09-07T08:13:09.981Z,35.04
2022-09-07T08:14:09.971Z,34.05
2022-09-07T08:15:09.963Z,33.34
2022-09-07T08:16:10.138Z,33.31
2022-09-07T08:17:09.943Z,33.22
2022-09-07T08:18:09.930Z,33.12
2022-09-07T08:19:09.917Z,33.05
2022-09-07T08:20:10.018Z,33.12
2022-09-07T08:21:09.913Z,33.04
2022-09-07T08:22:09.913Z,32.94
2022-09-07T08:23:09.903Z,33.11
2022-09-07T08:24:09.869Z,32.19
2022-09-07T08:25:09.874Z,31.76
2022-09-07T08:26:09.848Z,30.38
2022-09-07T08:27:09.838Z,29.99
2022-09-07T08:28:09.824Z,30.87
2022-09-07T08:29:09.832Z,30.17
2022-09-07T08:30:09.802Z,29.74
2022-09-07T08:31:10.845Z,29.05
2022-09-07T08:32:09.782Z,30.36
2022-09-07T08:33:09.772Z,30.44
2022-09-07T08:34:09.779Z,29.66
2022-09-07T08:35:10.039Z,29.76
2022-09-07T08:36:09.742Z,30.44
2022-09-07T08:37:09.731Z,30.25
2022-09-07T08:38:09.739Z,29.85
2022-09-07T08:39:09.724Z,30.01
2022-09-07T08:40:09.740Z,29.12
2022-09-07T08:41:09.691Z,30.00
2022-09-07T08:42:09.679Z,29.90
2022-09-07T08:43:09.671Z,29.79
2022-09-07T08:44:09.679Z,29.41
2022-09-07T08:45:09.652Z,29.90
2022-09-07T08:46:09.738Z,29.69
2022-09-07T08:47:09.630Z,28.20
2022-09-07T08:48:09.637Z,28.70
2022-09-07T08:49:09.621Z,29.51
2022-09-07T08:50:10.256Z,29.80
2022-09-07T08:51:09.586Z,29.41
2022-09-07T08:52:09.899Z,29.76
2022-09-07T08:53:09.571Z,28.69
2022-09-07T08:54:09.576Z,29.48
2022-09-07T08:55:09.562Z,29.48
2022-09-07T08:56:09.534Z,28.69
2022-09-07T08:57:24.972Z,28.79
2022-09-07T08:58:22.169Z,29.28
2022-09-07T08:59:10.525Z,29.48
2022-09-07T09:00:09.492Z,28.79
2022-09-07T09:01:39.789Z,29.50
2022-09-07T09:04:18.652Z,30.19
2022-09-07T09:05:18.519Z,29.40
2022-09-07T09:06:10.572Z,29.51
2022-09-07T09:07:09.675Z,30.94
2022-09-07T09:08:09.413Z,31.16
2022-09-07T09:09:09.430Z,30.64
2022-09-07T09:10:14.694Z,30.04
2022-09-07T09:11:09.388Z,30.72
2022-09-07T09:12:09.374Z,30.22
2022-09-07T09:13:09.364Z,29.90
2022-09-07T09:14:09.370Z,29.69
2022-09-07T09:15:09.343Z,29.95
2022-09-07T09:16:09.361Z,28.68
2022-09-07T09:17:09.323Z,28.17
2022-09-07T09:18:11.236Z,29.05
2022-09-07T09:19:10.326Z,28.45
2022-09-07T09:20:09.508Z,29.16
2022-09-07T09:21:09.282Z,29.38
2022-09-07T09:22:09.306Z,29.68
2022-09-07T09:23:09.265Z,30.27
2022-09-07T09:24:09.467Z,29.80
2022-09-07T09:25:09.243Z,30.61
2022-09-07T09:26:09.251Z,30.01
2022-09-07T09:27:09.230Z,29.69
2022-09-07T09:28:09.226Z,29.73
2022-09-07T09:29:09.206Z,28.75
2022-09-07T09:30:09.192Z,28.15
2022-09-07T09:31:09.255Z,27.83
2022-09-07T09:32:09.170Z,28.23
2022-09-07T09:33:09.179Z,28.15
2022-09-07T09:34:09.147Z,28.23
2022-09-07T09:35:09.142Z,28.52
2022-09-07T09:36:09.131Z,28.73
2022-09-07T09:37:09.149Z,28.49
2022-09-07T09:38:09.152Z,29.32
2022-09-07T09:39:09.267Z,30.90
2022-09-07T09:40:09.130Z,30.61
2022-09-07T09:41:09.084Z,30.97
2022-09-07T09:42:09.089Z,30.74
2022-09-07T09:43:09.200Z,29.16
2022-09-07T09:44:09.067Z,28.54
2022-09-07T09:45:09.927Z,28.09
2022-09-07T09:46:12.685Z,28.09
2022-09-07T09:48:10.033Z,29.60
2022-09-07T09:49:09.018Z,29.43
2022-09-07T09:50:09.462Z,29.32
2022-09-07T09:53:09.978Z,30.20
2022-09-07T09:54:08.954Z,29.76
2022-09-07T09:55:33.081Z,30.32
2022-09-07T09:56:09.978Z,29.63
2022-09-07T09:57:08.932Z,30.21
2022-09-07T10:00:12.113Z,29.41
2022-09-07T10:01:26.901Z,29.67
2022-09-07T10:04:14.643Z,29.49
2022-09-07T10:05:09.843Z,29.09
2022-09-07T10:06:08.835Z,29.06
2022-09-07T10:07:08.825Z,28.08
2022-09-07T10:08:08.829Z,29.47
2022-09-07T10:09:08.822Z,29.19
2022-09-07T10:10:08.872Z,29.46
2022-09-07T10:11:08.799Z,29.47
2022-09-07T10:12:09.073Z,31.12
2022-09-07T10:13:08.796Z,32.41
2022-09-07T10:14:08.790Z,32.50
2022-09-07T10:15:08.747Z,32.42
2022-09-07T10:16:08.761Z,31.60
2022-09-07T10:17:09.331Z,31.91
2022-09-07T10:18:08.715Z,32.68
2022-09-07T10:19:08.772Z,31.36
2022-09-07T10:20:08.712Z,30.99
2022-09-07T10:21:08.724Z,32.26
2022-09-07T10:22:08.677Z,30.88
2022-09-07T10:23:08.690Z,29.97
2022-09-07T10:24:08.671Z,30.46
2022-09-07T10:25:08.709Z,30.27
2022-09-07T10:26:08.640Z,31.59
2022-09-07T10:27:08.629Z,32.91
2022-09-07T10:28:08.619Z,32.75
2022-09-07T10:29:11.709Z,33.73
2022-09-07T10:30:08.612Z,35.33
2022-09-07T10:31:12.451Z,35.11
2022-09-07T10:32:09.669Z,33.29
2022-09-07T10:33:08.577Z,32.46
2022-09-07T10:34:26.877Z,30.89
2022-09-07T10:35:09.555Z,32.18
2022-09-07T10:36:08.784Z,32.91
2022-09-07T10:37:08.538Z,33.85
2022-09-07T10:38:08.537Z,36.62
2022-09-07T10:39:08.527Z,38.35
2022-09-07T10:40:08.562Z,39.94
2022-09-07T10:41:08.547Z,40.19
2022-09-07T10:42:08.488Z,41.21
2022-09-07T10:43:23.817Z,42.92
2022-09-07T10:44:09.862Z,43.95
2022-09-07T10:45:08.475Z,43.79
2022-09-07T10:46:08.510Z,46.18
2022-09-07T10:47:08.524Z,46.20
2022-09-07T10:48:08.425Z,46.12
2022-09-07T10:49:08.633Z,46.44
2022-09-07T10:50:23.954Z,47.38
2022-09-07T10:51:13.959Z,47.89
2022-09-07T10:52:09.388Z,49.69
2022-09-07T10:53:36.624Z,49.74
2022-09-07T10:55:09.481Z,50.12
2022-09-07T10:56:08.332Z,49.72
2022-09-07T10:57:08.343Z,49.40
2022-09-07T10:58:08.317Z,49.40
2022-09-07T10:59:08.308Z,49.89
2022-09-07T11:00:09.073Z,49.91
2022-09-07T11:01:08.366Z,50.34
2022-09-07T11:02:08.287Z,51.32
2022-09-07T11:04:09.249Z,49.82
2022-09-07T11:05:08.239Z,50.21
2022-09-07T11:06:08.270Z,50.04
2022-09-07T11:07:11.318Z,50.63
2022-09-07T11:08:09.204Z,51.03
2022-09-07T11:09:16.660Z,49.82
2022-09-07T11:10:09.478Z,50.93
2022-09-07T11:11:08.173Z,49.91
2022-09-07T11:12:08.231Z,50.34
2022-09-07T11:13:08.151Z,50.63
2022-09-07T11:14:13.563Z,51.23
2022-09-07T11:15:09.134Z,50.53
2022-09-07T11:16:08.371Z,51.03
2022-09-07T11:17:09.453Z,51.13
2022-09-07T11:18:08.097Z,50.41
2022-09-07T11:19:38.235Z,49.79
2022-09-07T11:20:09.179Z,50.01
2022-09-07T11:21:08.110Z,50.29
2022-09-07T11:22:09.478Z,49.49
2022-09-07T11:23:08.192Z,49.67
2022-09-07T11:24:08.031Z,49.77
2022-09-07T11:26:09.041Z,50.19
2022-09-07T11:27:08.018Z,49.96
2022-09-07T11:28:07.995Z,49.15
2022-09-07T11:30:09.874Z,49.18
2022-09-07T11:31:08.010Z,49.18
2022-09-07T11:32:07.973Z,49.27
2022-09-07T11:33:07.954Z,50.07
2022-09-07T11:35:08.913Z,48.88
2022-09-07T11:36:11.978Z,47.38
2022-09-07T11:37:07.907Z,46.75
2022-09-07T11:38:07.881Z,45.52
2022-09-07T11:39:07.875Z,45.01
2022-09-07T11:40:07.964Z,45.62
2022-09-07T11:41:07.846Z,46.03
2022-09-07T11:43:11.450Z,46.43
2022-09-07T11:44:07.821Z,45.76
2022-09-07T11:45:07.811Z,47.06
2022-09-07T11:46:07.837Z,47.16
2022-09-07T11:47:07.802Z,47.34
2022-09-07T11:48:07.773Z,47.36
2022-09-07T11:49:07.782Z,46.67
2022-09-07T11:50:07.757Z,46.62
2022-09-07T11:51:07.745Z,46.01
2022-09-07T11:52:07.766Z,46.41
2022-09-07T11:53:07.724Z,46.67
2022-09-07T11:54:07.713Z,47.26
2022-09-07T11:55:07.764Z,47.06
2022-09-07T11:56:07.695Z,46.55
2022-09-07T11:57:07.701Z,47.14
2022-09-07T11:58:07.669Z,47.19
2022-09-07T11:59:07.865Z,48.10
2022-09-07T12:00:07.646Z,48.39
2022-09-07T12:01:07.638Z,48.59
2022-09-07T12:02:07.703Z,48.69
2022-09-07T12:03:07.674Z,48.61
2022-09-07T12:04:08.632Z,49.20
2022-09-07T12:05:07.615Z,48.91
2022-09-07T12:06:07.595Z,49.22
2022-09-07T12:07:07.575Z,50.14
2022-09-07T12:08:07.568Z,51.13
2022-09-07T12:09:07.555Z,50.24
2022-09-07T12:10:07.552Z,51.03
2022-09-07T12:11:07.529Z,51.13
2022-09-07T12:12:07.660Z,50.54
2022-09-07T12:13:07.508Z,51.23
2022-09-07T12:14:07.509Z,50.24
2022-09-07T12:15:07.507Z,51.45
2022-09-07T12:16:07.676Z,51.87
2022-09-07T12:17:07.467Z,51.77
2022-09-07T12:18:07.457Z,51.57
2022-09-07T12:19:07.471Z,52.76
2022-09-07T12:20:07.437Z,51.94
2022-09-07T12:21:07.448Z,51.23
2022-09-07T12:22:07.417Z,51.30
2022-09-07T12:23:07.405Z,49.69
2022-09-07T12:24:07.409Z,49.69
2022-09-07T12:25:07.399Z,49.67
2022-09-07T12:26:07.385Z,48.96
2022-09-07T12:27:07.394Z,48.64
2022-09-07T12:28:07.349Z,47.22
2022-09-07T12:29:07.547Z,47.29
2022-09-07T12:30:07.355Z,46.38
2022-09-07T12:31:07.396Z,46.19
2022-09-07T12:32:53.204Z,45.48
2022-09-07T12:33:08.354Z,45.87
2022-09-07T12:34:07.300Z,46.28
2022-09-07T12:35:07.287Z,47.19
2022-09-07T12:36:07.276Z,46.90
2022-09-07T12:37:12.127Z,46.65
2022-09-07T12:38:08.238Z,47.34
2022-09-07T12:39:07.236Z,47.83
2022-09-07T12:40:07.370Z,47.83
2022-09-07T12:41:07.208Z,47.31
2022-09-07T12:42:37.662Z,47.22
2022-09-07T12:43:09.975Z,47.85
2022-09-07T12:44:07.175Z,48.54
2022-09-07T12:45:07.187Z,48.96
2022-09-07T12:46:07.218Z,49.57
2022-09-07T12:47:07.149Z,50.90
2022-09-07T12:48:07.356Z,51.82
2022-09-07T12:49:07.129Z,52.11
2022-09-07T12:50:07.130Z,52.21
2022-09-07T12:51:07.103Z,52.51
2022-09-07T12:52:15.303Z,51.94
2022-09-07T12:53:08.097Z,52.14
2022-09-07T12:54:07.071Z,52.44
2022-09-07T12:55:29.135Z,52.17
2022-09-07T12:56:16.016Z,52.36
2022-09-07T12:58:08.024Z,52.86
2022-09-07T12:59:11.923Z,53.05
2022-09-07T13:00:11.808Z,52.95
2022-09-07T13:01:07.099Z,53.57
2022-09-07T13:02:07.085Z,53.38
2022-09-07T13:04:07.964Z,54.19
2022-09-07T13:05:06.960Z,54.39
2022-09-07T13:06:06.981Z,54.19
2022-09-07T13:07:07.264Z,54.22
2022-09-07T13:08:09.033Z,54.94
2022-09-07T13:09:06.929Z,55.33
2022-09-07T13:10:06.919Z,54.94
2022-09-07T13:11:06.891Z,55.33
2022-09-07T13:12:07.580Z,54.81
2022-09-07T13:13:06.930Z,54.94
2022-09-07T13:14:09.389Z,55.96
2022-09-07T13:15:06.859Z,55.66
2022-09-07T13:16:06.909Z,55.76
2022-09-07T13:17:22.319Z,55.66
2022-09-07T13:18:07.831Z,56.15
2022-09-07T13:19:06.809Z,56.15
2022-09-07T13:20:06.809Z,56.13
2022-09-07T13:21:06.778Z,56.02
2022-09-07T13:22:06.799Z,55.43
2022-09-07T13:23:06.777Z,55.56
2022-09-07T13:25:07.770Z,56.45
2022-09-07T13:26:06.739Z,55.76
2022-09-07T13:27:07.489Z,56.74
2022-09-07T13:28:07.438Z,56.25
2022-09-07T13:29:06.704Z,56.02
2022-09-07T13:30:07.267Z,55.80
2022-09-07T13:31:06.736Z,55.18
2022-09-07T13:32:07.902Z,54.81
2022-09-07T13:33:08.365Z,55.21
2022-09-07T13:34:06.667Z,55.30
2022-09-07T13:35:06.630Z,55.11
2022-09-07T13:36:06.621Z,54.81
2022-09-07T13:37:06.630Z,55.41